createdAt,value
2023-04-18T00:00:51.999Z,101328.44
2023-04-18T00:02:56.849Z,101326.97
2023-04-18T00:05:00.378Z,101321.44
2023-04-18T00:07:04.814Z,101322.50
2023-04-18T00:09:10.058Z,101328.44
2023-04-18T00:11:14.854Z,101330.16
2023-04-18T00:13:19.279Z,101317.03
2023-04-18T00:15:22.342Z,101327.03
2023-04-18T00:17:28.104Z,101332.13
2023-04-18T00:19:34.243Z,101324.47
2023-04-18T00:21:37.990Z,101326.19
2023-04-18T00:23:41.739Z,101327.13
2023-04-18T00:25:45.324Z,101330.88
2023-04-18T00:27:48.955Z,101328.13
2023-04-18T00:29:51.821Z,101328.28
2023-04-18T00:31:57.256Z,101324.72
2023-04-18T00:34:04.634Z,101322.06
2023-04-18T00:36:13.249Z,101327.47
2023-04-18T00:38:18.868Z,101329.16
2023-04-18T00:40:28.958Z,101325.63
2023-04-18T00:42:35.006Z,101331.72
2023-04-18T00:44:38.470Z,101329.41
2023-04-18T00:46:41.486Z,101332.84
2023-04-18T00:48:45.728Z,101330.22
2023-04-18T00:50:48.908Z,101327.56
2023-04-18T00:52:55.009Z,101325.94
2023-04-18T00:54:58.123Z,101334.88
2023-04-18T00:57:02.404Z,101330.44
2023-04-18T00:59:06.658Z,101326.94
2023-04-18T01:01:10.879Z,101324.31
2023-04-18T01:03:19.848Z,101321.72
2023-04-18T01:05:27.195Z,101329.66
2023-04-18T01:07:31.845Z,101325.25
2023-04-18T01:09:36.982Z,101324.38
2023-04-18T01:11:41.230Z,101322.53
2023-04-18T01:13:59.844Z,101333.97
2023-04-18T01:16:05.692Z,101324.56
2023-04-18T01:18:09.903Z,101327.31
2023-04-18T01:20:16.799Z,101326.41
2023-04-18T01:22:21.259Z,101318.50
2023-04-18T01:24:26.797Z,101322.09
2023-04-18T01:26:31.595Z,101321.97
2023-04-18T01:28:40.062Z,101316.81
2023-04-18T01:30:44.779Z,101321.25
2023-04-18T01:32:48.365Z,101321.22
2023-04-18T01:34:57.163Z,101309.78
2023-04-18T01:37:01.136Z,101314.88
2023-04-18T01:39:04.830Z,101318.53
2023-04-18T01:41:10.366Z,101315.88
2023-04-18T01:43:15.208Z,101318.44
2023-04-18T01:45:20.749Z,101314.13
2023-04-18T01:47:23.926Z,101312.28
2023-04-18T01:49:26.888Z,101315.88
2023-04-18T01:51:30.360Z,101310.59
2023-04-18T01:53:34.105Z,101318.38
2023-04-18T01:55:39.234Z,101300.88
2023-04-18T01:57:47.529Z,101304.44
2023-04-18T01:59:52.625Z,101307.97
2023-04-18T02:01:56.574Z,101302.78
2023-04-18T02:04:03.826Z,101307.25
2023-04-18T02:06:08.734Z,101295.84
2023-04-18T02:08:12.337Z,101306.34
2023-04-18T02:10:16.907Z,101300.25
2023-04-18T02:12:21.092Z,101301.09
2023-04-18T02:14:27.390Z,101303.63
2023-04-18T02:16:30.501Z,101303.72
2023-04-18T02:18:34.669Z,101296.84
2023-04-18T02:20:38.035Z,101299.47
2023-04-18T02:26:17.569Z,101296.75
2023-04-18T02:28:20.571Z,101298.69
2023-04-18T02:30:27.525Z,101296.19
2023-04-18T02:32:31.202Z,101299.69
2023-04-18T02:34:36.192Z,101297.06
2023-04-18T02:36:39.714Z,101296.13
2023-04-18T02:38:42.572Z,101296.19
2023-04-18T02:40:45.701Z,101304.06
2023-04-18T02:42:48.715Z,101306.59
2023-04-18T02:44:51.558Z,101305.66
2023-04-18T02:46:55.881Z,101302.25
2023-04-18T02:48:58.921Z,101297.03
2023-04-18T02:51:04.390Z,101308.41
2023-04-18T02:53:09.560Z,101304.75
2023-04-18T02:55:28.412Z,101310.16
2023-04-18T02:57:34.423Z,101305.75
2023-04-18T03:00:07.896Z,101309.19
2023-04-18T03:02:18.841Z,101306.59
2023-04-18T03:04:27.578Z,101300.31
2023-04-18T03:06:36.439Z,101301.44
2023-04-18T03:08:39.366Z,101303.16
2023-04-18T03:10:43.468Z,101299.69
2023-04-18T03:12:47.643Z,101306.78
2023-04-18T03:14:52.732Z,101306.78
2023-04-18T03:16:56.665Z,101305.22
2023-04-18T03:19:06.221Z,101309.72
2023-04-18T03:21:09.813Z,101313.13
2023-04-18T03:23:12.982Z,101313.97
2023-04-18T03:25:16.112Z,101320.25
2023-04-18T03:27:27.111Z,101314.97
2023-04-18T03:29:30.112Z,101319.22
2023-04-18T03:31:33.656Z,101321.91
2023-04-18T03:33:36.874Z,101320.16
2023-04-18T03:35:46.478Z,101326.34
2023-04-18T03:37:49.441Z,101325.63
2023-04-18T03:40:01.336Z,101328.94
2023-04-18T03:42:06.046Z,101320.25
2023-04-18T03:44:10.489Z,101331.53
2023-04-18T03:46:16.229Z,101329.94
2023-04-18T03:48:19.450Z,101326.41
2023-04-18T03:50:24.672Z,101329.91
2023-04-18T03:52:31.370Z,101330.75
2023-04-18T03:54:34.235Z,101335.16
2023-04-18T03:56:37.270Z,101332.38
2023-04-18T03:58:40.321Z,101327.22
2023-04-18T04:00:43.296Z,101336.72
2023-04-18T04:02:47.322Z,101346.44
2023-04-18T04:04:56.175Z,101333.28
2023-04-18T04:06:59.520Z,101344.50
2023-04-18T04:09:03.982Z,101339.22
2023-04-18T04:11:06.996Z,101334.88
2023-04-18T04:13:09.911Z,101344.47
2023-04-18T04:15:15.535Z,101340.03
2023-04-18T04:17:25.415Z,101332.03
2023-04-18T04:19:28.917Z,101334.66
2023-04-18T04:21:42.874Z,101341.78
2023-04-18T04:23:49.075Z,101341.72
2023-04-18T04:26:04.647Z,101341.59
2023-04-18T04:28:19.262Z,101342.59
2023-04-18T04:30:29.878Z,101338.94
2023-04-18T04:32:33.258Z,101348.47
2023-04-18T04:34:36.828Z,101353.03
2023-04-18T04:36:43.863Z,101348.56
2023-04-18T04:38:49.180Z,101356.47
2023-04-18T04:40:58.160Z,101352.97
2023-04-18T04:43:02.344Z,101356.50
2023-04-18T04:45:12.478Z,101355.47
2023-04-18T04:47:15.424Z,101350.97
2023-04-18T04:49:18.534Z,101352.50
2023-04-18T04:51:21.400Z,101351.91
2023-04-18T04:53:24.722Z,101352.88
2023-04-18T04:55:27.720Z,101352.75
2023-04-18T04:57:30.779Z,101349.09
2023-04-18T04:59:35.595Z,101356.97
2023-04-18T05:01:38.673Z,101359.59
2023-04-18T05:03:41.829Z,101358.88
2023-04-18T05:05:44.840Z,101355.31
2023-04-18T05:07:47.691Z,101357.94
2023-04-18T05:09:53.125Z,101363.03
2023-04-18T05:11:56.031Z,101355.19
2023-04-18T05:13:59.696Z,101360.59
2023-04-18T05:16:06.007Z,101363.31
2023-04-18T05:18:08.948Z,101357.94
2023-04-18T05:20:12.417Z,101352.06
2023-04-18T05:22:15.270Z,101357.28
2023-04-18T05:24:18.134Z,101363.22
2023-04-18T05:26:21.089Z,101364.84
2023-04-18T05:28:24.816Z,101359.69
2023-04-18T05:30:27.713Z,101366.66
2023-04-18T05:32:32.338Z,101368.25
2023-04-18T05:34:38.678Z,101379.03
2023-04-18T05:36:42.159Z,101377.28
2023-04-18T05:38:45.034Z,101376.38
2023-04-18T05:40:47.877Z,101381.56
2023-04-18T05:42:51.238Z,101377.22
2023-04-18T05:44:54.130Z,101385.06
2023-04-18T05:46:57.272Z,101382.41
2023-04-18T05:49:01.546Z,101385.06
2023-04-18T05:51:05.868Z,101384.91
2023-04-18T05:53:09.008Z,101383.81
2023-04-18T05:55:11.966Z,101387.25
2023-04-18T05:57:15.163Z,101383.09
2023-04-18T05:59:18.226Z,101385.84
2023-04-18T06:01:21.510Z,101390.19
2023-04-18T06:03:25.049Z,101394.34
2023-04-18T06:05:30.405Z,101397.75
2023-04-18T06:07:33.579Z,101394.84
2023-04-18T06:09:36.561Z,101392.38
2023-04-18T06:11:39.366Z,101401.00
2023-04-18T06:13:42.552Z,101397.66
2023-04-18T06:15:45.551Z,101401.13
2023-04-18T06:17:49.258Z,101412.47
2023-04-18T06:19:52.149Z,101402.03
2023-04-18T06:21:56.396Z,101408.03
2023-04-18T06:24:01.398Z,101404.50
2023-04-18T06:26:04.296Z,101415.03
2023-04-18T06:28:07.193Z,101418.50
2023-04-18T06:30:10.717Z,101410.59
2023-04-18T06:32:13.566Z,101409.09
2023-04-18T06:34:16.560Z,101416.84
2023-04-18T06:36:19.655Z,101418.63
2023-04-18T06:38:24.152Z,101416.78
2023-04-18T06:40:27.104Z,101416.72
2023-04-18T06:42:29.989Z,101399.41
2023-04-18T06:44:33.222Z,101409.75
2023-04-18T06:46:39.184Z,101414.03
2023-04-18T06:48:42.256Z,101415.81
2023-04-18T06:50:45.657Z,101419.31
2023-04-18T06:52:48.560Z,101422.59
2023-04-18T06:54:52.808Z,101415.41
2023-04-18T06:56:56.039Z,101412.69
2023-04-18T06:58:58.913Z,101419.91
2023-04-18T07:01:01.897Z,101421.69
2023-04-18T07:03:11.422Z,101415.16
2023-04-18T07:05:14.948Z,101421.25
2023-04-18T07:07:18.348Z,101423.97
2023-04-18T07:09:22.570Z,101433.06
2023-04-18T07:11:27.150Z,101427.91
2023-04-18T07:13:30.094Z,101434.72
2023-04-18T07:15:33.030Z,101424.91
2023-04-18T07:17:36.030Z,101418.00
2023-04-18T07:19:39.430Z,101432.75
2023-04-18T07:21:43.821Z,101423.19
2023-04-18T07:23:47.619Z,101428.44
2023-04-18T07:25:50.611Z,101437.84
2023-04-18T07:27:56.004Z,101423.88
2023-04-18T07:30:00.589Z,101425.69
2023-04-18T07:32:05.181Z,101432.72
2023-04-18T07:34:09.153Z,101442.59
2023-04-18T07:36:12.167Z,101441.72
2023-04-18T07:38:16.641Z,101446.44
2023-04-18T07:40:19.770Z,101441.47
2023-04-18T07:42:22.921Z,101440.34
2023-04-18T07:44:27.784Z,101438.66
2023-04-18T07:46:32.403Z,101446.69
2023-04-18T07:48:35.368Z,101438.63
2023-04-18T07:50:38.584Z,101452.59
2023-04-18T07:52:41.520Z,101455.91
2023-04-18T07:54:44.356Z,101442.59
2023-04-18T07:56:47.873Z,101442.13
2023-04-18T07:58:50.751Z,101442.13
2023-04-18T08:00:55.010Z,101451.75
2023-04-18T08:02:58.017Z,101436.09
2023-04-18T08:05:01.293Z,101444.41
2023-04-18T08:07:04.368Z,101438.28
2023-04-18T08:09:07.425Z,101445.44
2023-04-18T08:11:10.769Z,101439.13
2023-04-18T08:13:14.107Z,101439.88
2023-04-18T08:15:16.982Z,101452.31
2023-04-18T08:17:21.245Z,101453.94
2023-04-18T08:19:24.307Z,101448.50
2023-04-18T08:21:27.474Z,101452.84
2023-04-18T08:23:30.348Z,101456.75
2023-04-18T08:25:33.507Z,101457.81
2023-04-18T08:27:36.587Z,101462.56
2023-04-18T08:29:39.685Z,101460.44
2023-04-18T08:31:42.580Z,101455.38
2023-04-18T08:33:46.914Z,101463.03
2023-04-18T08:35:50.256Z,101472.25
2023-04-18T08:37:53.305Z,101465.09
2023-04-18T08:39:56.187Z,101467.88
2023-04-18T08:42:00.467Z,101467.16
2023-04-18T08:44:03.592Z,101470.03
2023-04-18T08:46:06.685Z,101465.31
2023-04-18T08:48:13.154Z,101466.09
2023-04-18T08:50:18.447Z,101469.28
2023-04-18T08:52:21.791Z,101467.16
2023-04-18T08:54:27.248Z,101461.94
2023-04-18T08:56:30.340Z,101468.94
2023-04-18T08:58:34.915Z,101466.28
2023-04-18T09:00:38.560Z,101463.06
2023-04-18T09:02:43.688Z,101476.38
2023-04-18T09:04:49.422Z,101466.66
2023-04-18T09:06:54.227Z,101468.97
2023-04-18T09:08:58.879Z,101469.84
2023-04-18T09:11:23.963Z,101479.34
2023-04-18T09:13:39.623Z,101476.22
2023-04-18T09:15:45.612Z,101478.44
2023-04-18T09:17:51.015Z,101473.88
2023-04-18T09:19:54.542Z,101478.41
2023-04-18T09:22:04.535Z,101481.22
2023-04-18T09:24:20.922Z,101484.75
2023-04-18T09:26:34.601Z,101475.16
2023-04-18T09:28:37.543Z,101476.00
2023-04-18T09:30:43.063Z,101492.41
2023-04-18T09:32:47.366Z,101482.63
2023-04-18T09:34:50.281Z,101486.97
2023-04-18T09:37:11.465Z,101469.97
2023-04-18T09:39:27.891Z,101468.00
2023-04-18T09:41:33.674Z,101473.22
2023-04-18T09:43:36.607Z,101465.69
2023-04-18T09:45:43.443Z,101468.84
2023-04-18T09:47:46.583Z,101467.81
2023-04-18T09:49:49.766Z,101470.06
2023-04-18T09:51:56.227Z,101461.03
2023-04-18T09:54:01.651Z,101470.59
2023-04-18T09:56:07.413Z,101459.41
2023-04-18T09:58:11.471Z,101456.75
2023-04-18T10:00:20.260Z,101457.25
2023-04-18T10:02:24.084Z,101455.91
2023-04-18T10:04:28.439Z,101455.69
2023-04-18T10:06:33.418Z,101460.22
2023-04-18T10:08:36.302Z,101447.75
2023-04-18T10:10:41.467Z,101462.34
2023-04-18T10:12:47.822Z,101450.03
2023-04-18T10:14:52.394Z,101452.72
2023-04-18T10:16:56.205Z,101445.41
2023-04-18T10:18:59.689Z,101451.06
2023-04-18T10:21:04.105Z,101447.09
2023-04-18T10:23:37.215Z,101440.06
2023-04-18T10:25:52.311Z,101446.72
2023-04-18T10:27:57.966Z,101439.91
2023-04-18T10:30:01.431Z,101436.69
2023-04-18T10:32:07.555Z,101435.84
2023-04-18T10:34:17.414Z,101435.91
2023-04-18T10:36:21.779Z,101439.28
2023-04-18T10:38:25.161Z,101445.19
2023-04-18T10:40:33.517Z,101434.72
2023-04-18T10:43:02.895Z,101434.56
2023-04-18T10:45:18.799Z,101436.22
2023-04-18T10:47:26.041Z,101433.28
2023-04-18T10:49:34.210Z,101435.09
2023-04-18T10:51:37.147Z,101428.00
2023-04-18T10:53:40.050Z,101427.50
2023-04-18T10:55:45.062Z,101431.38
2023-04-18T10:57:50.485Z,101419.50
2023-04-18T10:59:55.144Z,101424.03
2023-04-18T11:02:00.695Z,101428.88
2023-04-18T11:04:12.528Z,101418.66
2023-04-18T11:06:15.912Z,101416.25
2023-04-18T11:08:25.239Z,101411.13
2023-04-18T11:10:28.378Z,101412.53
2023-04-18T11:12:33.222Z,101416.56
2023-04-18T11:14:41.889Z,101417.94
2023-04-18T11:16:46.145Z,101416.16
2023-04-18T11:18:49.048Z,101417.22
2023-04-18T11:20:54.356Z,101407.75
2023-04-18T11:22:58.358Z,101416.41
2023-04-18T11:25:01.801Z,101412.00
2023-04-18T11:27:04.974Z,101416.13
2023-04-18T11:29:07.870Z,101412.13
2023-04-18T11:31:10.839Z,101415.13
2023-04-18T11:33:15.817Z,101411.44
2023-04-18T11:35:19.438Z,101414.09
2023-04-18T11:37:22.958Z,101418.06
2023-04-18T11:39:25.916Z,101416.75
2023-04-18T11:41:28.994Z,101416.44
2023-04-18T11:43:31.867Z,101410.28
2023-04-18T11:45:34.950Z,101412.75
2023-04-18T11:47:39.903Z,101416.31
2023-04-18T11:49:44.255Z,101414.97
2023-04-18T11:51:48.169Z,101418.53
2023-04-18T11:53:51.204Z,101419.00
2023-04-18T11:55:56.022Z,101418.69
2023-04-18T11:58:00.517Z,101408.41
2023-04-18T12:00:04.040Z,101426.00
2023-04-18T12:02:16.661Z,101433.63
2023-04-18T12:04:23.572Z,101425.66
2023-04-18T12:06:28.188Z,101428.63
2023-04-18T12:08:32.983Z,101426.09
2023-04-18T12:10:36.969Z,101424.66
2023-04-18T12:12:48.894Z,101435.16
2023-04-18T12:14:59.779Z,101435.31
2023-04-18T12:17:04.598Z,101428.47
2023-04-18T12:19:11.312Z,101424.34
2023-04-18T12:21:17.127Z,101432.22
2023-04-18T12:23:35.548Z,101424.97
2023-04-18T12:25:38.910Z,101417.28
2023-04-18T12:27:51.755Z,101421.34
2023-04-18T12:29:54.703Z,101427.44
2023-04-18T12:31:58.007Z,101410.50
2023-04-18T12:34:00.943Z,101408.94
2023-04-18T12:36:05.306Z,101392.59
2023-04-18T12:38:08.415Z,101403.25
2023-04-18T12:40:14.064Z,101405.91
2023-04-18T12:42:17.479Z,101407.97
2023-04-18T12:44:20.872Z,101406.41
2023-04-18T12:46:23.750Z,101405.16
2023-04-18T12:48:26.692Z,101400.63
2023-04-18T12:50:29.578Z,101407.06
2023-04-18T12:52:33.003Z,101396.19
2023-04-18T12:54:37.989Z,101393.19
2023-04-18T12:56:42.419Z,101404.81
2023-04-18T12:58:46.005Z,101393.66
2023-04-18T13:00:49.008Z,101395.97
2023-04-18T13:02:53.601Z,101390.66
2023-04-18T13:04:57.191Z,101381.34
2023-04-18T13:07:01.065Z,101382.41
2023-04-18T13:09:04.511Z,101391.41
2023-04-18T13:11:07.902Z,101387.06
2023-04-18T13:13:12.315Z,101389.41
2023-04-18T13:15:15.838Z,101379.00
2023-04-18T13:17:18.727Z,101380.13
2023-04-18T13:19:22.335Z,101377.72
2023-04-18T13:21:26.355Z,101378.84
2023-04-18T13:23:29.415Z,101393.34
2023-04-18T13:25:33.055Z,101378.03
2023-04-18T13:27:36.306Z,101382.50
2023-04-18T13:29:42.311Z,101369.63
2023-04-18T13:31:45.300Z,101367.88
2023-04-18T13:33:48.323Z,101368.34
2023-04-18T13:35:52.593Z,101365.78
2023-04-18T13:37:57.033Z,101360.84
2023-04-18T13:40:00.392Z,101355.44
2023-04-18T13:42:05.105Z,101353.81
2023-04-18T13:44:10.511Z,101358.22
2023-04-18T13:46:15.120Z,101349.03
2023-04-18T13:48:18.050Z,101350.59
2023-04-18T13:50:21.280Z,101351.22
2023-04-18T13:52:24.213Z,101343.41
2023-04-18T13:54:28.025Z,101340.16
2023-04-18T13:56:30.931Z,101348.44
2023-04-18T13:58:33.933Z,101353.78
2023-04-18T14:00:37.193Z,101355.03
2023-04-18T14:02:41.994Z,101356.44
2023-04-18T14:04:45.077Z,101364.19
2023-04-18T14:06:48.868Z,101351.09
2023-04-18T14:08:51.964Z,101349.59
2023-04-18T14:10:54.839Z,101353.84
2023-04-18T14:12:58.190Z,101352.81
2023-04-18T14:15:01.214Z,101352.03
2023-04-18T14:17:04.109Z,101352.47
2023-04-18T14:19:08.322Z,101357.72
2023-04-18T14:21:11.909Z,101348.66
2023-04-18T14:23:15.002Z,101340.78
2023-04-18T14:25:18.969Z,101349.34
2023-04-18T14:27:21.872Z,101344.09
2023-04-18T14:29:24.740Z,101345.94
2023-04-18T14:31:28.187Z,101345.84
2023-04-18T14:33:31.138Z,101343.03
2023-04-18T14:35:35.393Z,101344.84
2023-04-18T14:37:38.581Z,101342.09
2023-04-18T14:39:41.445Z,101342.50
2023-04-18T14:41:45.832Z,101339.00
2023-04-18T14:43:49.201Z,101344.56
2023-04-18T14:45:52.151Z,101337.25
2023-04-18T14:47:55.776Z,101336.66
2023-04-18T14:49:59.060Z,101337.38
2023-04-18T14:52:03.350Z,101348.22
2023-04-18T14:54:06.696Z,101348.56
2023-04-18T14:56:09.676Z,101322.41
2023-04-18T14:58:12.533Z,101332.25
2023-04-18T15:00:16.092Z,101328.56
2023-04-18T15:02:20.199Z,101333.63
2023-04-18T15:04:23.657Z,101339.56
2023-04-18T15:06:28.464Z,101322.09
2023-04-18T15:08:37.152Z,101325.31
2023-04-18T15:10:43.140Z,101319.63
2023-04-18T15:12:48.504Z,101332.13
2023-04-18T15:14:51.497Z,101325.31
2023-04-18T15:16:55.643Z,101324.06
2023-04-18T15:19:00.406Z,101338.56
2023-04-18T15:21:04.986Z,101317.84
2023-04-18T15:23:10.844Z,101326.28
2023-04-18T15:25:17.124Z,101326.63
2023-04-18T15:27:21.286Z,101328.84
2023-04-18T15:29:26.326Z,101324.53
2023-04-18T15:31:29.932Z,101332.44
2023-04-18T15:33:34.339Z,101328.22
2023-04-18T15:35:37.245Z,101330.13
2023-04-18T15:37:40.912Z,101324.47
2023-04-18T15:39:47.211Z,101326.69
2023-04-18T15:41:53.417Z,101331.66
2023-04-18T15:43:59.403Z,101334.84
2023-04-18T15:46:03.580Z,101328.00
2023-04-18T15:48:08.269Z,101328.47
2023-04-18T15:50:12.398Z,101323.16
2023-04-18T15:52:17.904Z,101334.53
2023-04-18T15:54:25.135Z,101326.56
2023-04-18T15:56:29.705Z,101318.72
2023-04-18T15:58:38.149Z,101327.97
2023-04-18T16:00:44.549Z,101323.63
2023-04-18T16:02:48.001Z,101319.56
2023-04-18T16:04:53.235Z,101326.13
2023-04-18T16:06:58.205Z,101321.47
2023-04-18T16:09:05.432Z,101322.81
2023-04-18T16:11:08.995Z,101320.75
2023-04-18T16:13:17.277Z,101324.69
2023-04-18T16:15:24.335Z,101315.34
2023-04-18T16:17:29.551Z,101312.97
2023-04-18T16:19:39.333Z,101313.28
2023-04-18T16:21:47.185Z,101316.34
2023-04-18T16:23:51.748Z,101310.31
2023-04-18T16:25:57.671Z,101311.13
2023-04-18T16:28:00.960Z,101322.19
2023-04-18T16:30:06.695Z,101317.13
2023-04-18T16:32:12.360Z,101316.56
2023-04-18T16:34:15.733Z,101327.13
2023-04-18T16:36:19.901Z,101331.22
2023-04-18T16:38:25.485Z,101329.78
2023-04-18T16:40:30.686Z,101330.91
2023-04-18T16:42:35.735Z,101326.63
2023-04-18T16:44:39.342Z,101328.78
2023-04-18T16:46:42.840Z,101331.69
2023-04-18T16:48:49.043Z,101341.78
2023-04-18T16:50:54.237Z,101346.13
2023-04-18T16:52:57.262Z,101343.03
2023-04-18T16:55:03.285Z,101348.53
2023-04-18T16:57:07.318Z,101341.78
2023-04-18T16:59:11.130Z,101350.81
2023-04-18T17:01:15.574Z,101343.28
2023-04-18T17:03:18.790Z,101341.84
2023-04-18T17:05:24.008Z,101344.22
2023-04-18T17:07:27.043Z,101346.31
2023-04-18T17:09:37.324Z,101335.19
2023-04-18T17:11:42.348Z,101336.00
2023-04-18T17:13:45.689Z,101344.34
2023-04-18T17:15:51.877Z,101343.28
2023-04-18T17:17:56.591Z,101354.47
2023-04-18T17:19:59.970Z,101355.00
2023-04-18T17:22:04.774Z,101352.34
2023-04-18T17:24:08.584Z,101345.59
2023-04-18T17:26:11.575Z,101348.59
2023-04-18T17:28:15.181Z,101346.28
2023-04-18T17:30:21.524Z,101353.59
2023-04-18T17:32:24.671Z,101348.94
2023-04-18T17:34:27.843Z,101347.09
2023-04-18T17:36:30.863Z,101341.28
2023-04-18T17:38:35.182Z,101348.38
2023-04-18T17:40:39.281Z,101348.28
2023-04-18T17:42:42.695Z,101349.75
2023-04-18T17:44:45.751Z,101350.19
2023-04-18T17:46:50.428Z,101359.31
2023-04-18T17:48:53.745Z,101355.97
2023-04-18T17:50:56.609Z,101363.25
2023-04-18T17:52:59.739Z,101362.53
2023-04-18T17:55:04.336Z,101356.53
2023-04-18T17:57:07.356Z,101367.84
2023-04-18T17:59:10.891Z,101369.00
2023-04-18T18:01:16.748Z,101370.88
2023-04-18T18:03:20.674Z,101371.38
2023-04-18T18:05:25.978Z,101369.75
2023-04-18T18:07:30.975Z,101375.72
2023-04-18T18:09:34.624Z,101382.78
2023-04-18T18:11:40.010Z,101383.31
2023-04-18T18:13:43.111Z,101386.72
2023-04-18T18:15:46.220Z,101387.66
2023-04-18T18:18:02.986Z,101383.25
2023-04-18T18:20:09.769Z,101384.78
2023-04-18T18:22:12.744Z,101397.72
2023-04-18T18:24:15.641Z,101397.28
2023-04-18T18:26:18.520Z,101397.94
2023-04-18T18:28:22.843Z,101400.84
2023-04-18T18:30:25.743Z,101402.97
2023-04-18T18:32:28.633Z,101398.44
2023-04-18T18:34:32.110Z,101399.59
2023-04-18T18:36:35.035Z,101410.06
2023-04-18T18:38:37.969Z,101412.19
2023-04-18T18:40:40.851Z,101414.06
2023-04-18T18:42:43.719Z,101417.59
2023-04-18T18:44:48.181Z,101414.78
2023-04-18T18:46:51.173Z,101416.81
2023-04-18T18:48:54.163Z,101419.66
2023-04-18T18:50:58.272Z,101418.69
2023-04-18T18:53:01.774Z,101426.63
2023-04-18T18:55:04.992Z,101429.31
2023-04-18T18:57:08.431Z,101426.72
2023-04-18T18:59:11.402Z,101420.72
2023-04-18T19:01:16.087Z,101426.28
2023-04-18T19:03:21.204Z,101432.41
2023-04-18T19:05:24.866Z,101424.81
2023-04-18T19:07:29.875Z,101428.31
2023-04-18T19:09:33.279Z,101434.44
2023-04-18T19:11:37.183Z,101431.78
2023-04-18T19:13:40.310Z,101432.13
2023-04-18T19:15:43.315Z,101437.75
2023-04-18T19:17:47.686Z,101450.00
2023-04-18T19:19:50.623Z,101441.13
2023-04-18T19:21:53.833Z,101443.63
2023-04-18T19:23:56.889Z,101446.28
2023-04-18T19:25:59.733Z,101440.06
2023-04-18T19:28:02.583Z,101440.19
2023-04-18T19:30:06.178Z,101447.44
2023-04-18T19:32:09.143Z,101450.81
2023-04-18T19:34:13.701Z,101442.97
2023-04-18T19:36:17.028Z,101450.38
2023-04-18T19:38:20.068Z,101450.66
2023-04-18T19:40:26.674Z,101454.34
2023-04-18T19:42:29.494Z,101456.16
2023-04-18T19:44:32.985Z,101456.53
2023-04-18T19:46:36.266Z,101452.03
2023-04-18T19:48:39.267Z,101449.66
2023-04-18T19:50:44.744Z,101461.97
2023-04-18T19:52:47.904Z,101461.06
2023-04-18T19:54:50.874Z,101457.66
2023-04-18T19:56:54.068Z,101456.78
2023-04-18T19:58:57.947Z,101454.19
2023-04-18T20:01:01.226Z,101450.34
2023-04-18T20:03:04.389Z,101455.59
2023-04-18T20:05:09.293Z,101452.94
2023-04-18T20:07:13.857Z,101454.59
2023-04-18T20:09:17.477Z,101458.41
2023-04-18T20:11:20.836Z,101451.19
2023-04-18T20:13:23.712Z,101458.94
2023-04-18T20:15:26.620Z,101455.38
2023-04-18T20:17:30.528Z,101454.56
2023-04-18T20:19:33.587Z,101455.72
2023-04-18T20:21:36.586Z,101458.31
2023-04-18T20:23:42.552Z,101451.41
2023-04-18T20:25:45.911Z,101453.28
2023-04-18T20:27:49.215Z,101458.31
2023-04-18T20:29:52.653Z,101454.72
2023-04-18T20:31:55.858Z,101457.13
2023-04-18T20:33:59.927Z,101457.22
2023-04-18T20:36:03.881Z,101459.03
2023-04-18T20:38:11.223Z,101458.94
2023-04-18T20:40:16.679Z,101464.13
2023-04-18T20:42:19.753Z,101462.03
2023-04-18T20:44:24.854Z,101457.44
2023-04-18T20:46:28.001Z,101468.00
2023-04-18T20:48:30.968Z,101461.66
2023-04-18T20:50:33.939Z,101472.34
2023-04-18T20:52:36.782Z,101460.75
2023-04-18T20:54:39.661Z,101469.97
2023-04-18T20:56:44.092Z,101467.38
2023-04-18T20:58:47.080Z,101465.53
2023-04-18T21:00:50.436Z,101471.88
2023-04-18T21:02:53.519Z,101465.59
2023-04-18T21:04:56.497Z,101465.78
2023-04-18T21:07:01.308Z,101466.59
2023-04-18T21:09:04.386Z,101473.47
2023-04-18T21:11:07.283Z,101475.09
2023-04-18T21:13:12.663Z,101467.34
2023-04-18T21:15:16.196Z,101474.84
2023-04-18T21:17:19.148Z,101474.97
2023-04-18T21:19:22.092Z,101480.25
2023-04-18T21:21:25.616Z,101475.72
2023-04-18T21:23:28.607Z,101479.25
2023-04-18T21:25:31.485Z,101475.53
2023-04-18T21:27:34.448Z,101471.19
2023-04-18T21:29:38.680Z,101479.06
2023-04-18T21:31:41.602Z,101474.78
2023-04-18T21:33:44.872Z,101475.63
2023-04-18T21:35:47.772Z,101471.97
2023-04-18T21:37:51.041Z,101479.88
2023-04-18T21:39:53.885Z,101474.53
2023-04-18T21:41:58.247Z,101473.56
2023-04-18T21:44:01.383Z,101475.25
2023-04-18T21:46:06.142Z,101478.56
2023-04-18T21:48:10.662Z,101469.16
2023-04-18T21:50:13.603Z,101478.75
2023-04-18T21:52:16.925Z,101474.56
2023-04-18T21:54:19.773Z,101480.72
2023-04-18T21:56:22.694Z,101479.84
2023-04-18T21:58:25.735Z,101478.84
2023-04-18T22:00:28.852Z,101483.81
2023-04-18T22:02:33.316Z,101478.47
2023-04-18T22:04:37.977Z,101474.34
2023-04-18T22:06:41.875Z,101475.03
2023-04-18T22:08:45.332Z,101472.63
2023-04-18T22:10:51.292Z,101478.56
2023-04-18T22:12:54.611Z,101477.69
2023-04-18T22:14:58.584Z,101469.69
2023-04-18T22:17:03.300Z,101478.41
2023-04-18T22:19:09.095Z,101478.63
2023-04-18T22:21:14.384Z,101473.97
2023-04-18T22:23:22.453Z,101469.19
2023-04-18T22:25:25.495Z,101472.22
2023-04-18T22:27:28.466Z,101463.41
2023-04-18T22:29:31.359Z,101472.06
2023-04-18T22:31:34.218Z,101463.22
2023-04-18T22:33:37.321Z,101462.44
2023-04-18T22:35:41.822Z,101469.88
2023-04-18T22:37:44.676Z,101465.66
2023-04-18T22:39:47.539Z,101456.63
2023-04-18T22:41:50.506Z,101455.88
2023-04-18T22:43:54.692Z,101463.81
2023-04-18T22:45:57.648Z,101470.06
2023-04-18T22:48:01.022Z,101462.97
2023-04-18T22:50:04.038Z,101462.78
2023-04-18T22:52:08.382Z,101460.97
2023-04-18T22:54:11.268Z,101464.34
2023-04-18T22:56:14.136Z,101462.69
2023-04-18T22:58:17.283Z,101460.53
2023-04-18T23:00:20.845Z,101466.41
2023-04-18T23:02:23.801Z,101469.88
2023-04-18T23:04:31.548Z,101465.56
2023-04-18T23:06:39.811Z,101466.25
2023-04-18T23:08:44.119Z,101470.84
2023-04-18T23:10:47.005Z,101464.53
2023-04-18T23:12:49.876Z,101467.44
2023-04-18T23:14:52.795Z,101464.44
2023-04-18T23:16:55.717Z,101466.16
2023-04-18T23:18:58.641Z,101465.56
2023-04-18T23:21:02.204Z,101469.84
2023-04-18T23:23:05.019Z,101468.88
2023-04-18T23:25:10.828Z,101471.94
2023-04-18T23:27:14.077Z,101471.75
2023-04-18T23:29:16.958Z,101473.59
2023-04-18T23:31:20.210Z,101475.59
2023-04-18T23:33:23.277Z,101480.78
2023-04-18T23:35:26.123Z,101485.19
2023-04-18T23:37:29.814Z,101480.88
2023-04-18T23:39:32.967Z,101482.88
2023-04-18T23:41:37.234Z,101483.66
2023-04-18T23:43:40.108Z,101477.50
2023-04-18T23:45:43.099Z,101475.69